sensor_id;sensor_type;location;lat;lon;timestamp;pressure;altitude;pressure_sealevel;temperature
73894;BMP280;62699;50.534;12.784;2023-02-05T00:02:34;98236.16;;;-1.86
73894;BMP280;62699;50.534;12.784;2023-02-05T00:07:34;98239.03;;;-1.95
73894;BMP280;62699;50.534;12.784;2023-02-05T00:12:34;98227.56;;;-2.06
73894;BMP280;62699;50.534;12.784;2023-02-05T00:17:35;98232.72;;;-2.13
73894;BMP280;62699;50.534;12.784;2023-02-05T00:22:36;98228.06;;;-2.23
73894;BMP280;62699;50.534;12.784;2023-02-05T00:27:36;98234.75;;;-2.29
73894;BMP280;62699;50.534;12.784;2023-02-05T00:32:36;98227.06;;;-2.38
73894;BMP280;62699;50.534;12.784;2023-02-05T00:37:36;98235.16;;;-2.50
73894;BMP280;62699;50.534;12.784;2023-02-05T00:42:37;98227.44;;;-2.62
73894;BMP280;62699;50.534;12.784;2023-02-05T00:47:37;98239.31;;;-2.72
73894;BMP280;62699;50.534;12.784;2023-02-05T00:52:37;98248.97;;;-2.79
73894;BMP280;62699;50.534;12.784;2023-02-05T00:57:37;98241.31;;;-2.88
73894;BMP280;62699;50.534;12.784;2023-02-05T01:02:38;98237.69;;;-2.99
73894;BMP280;62699;50.534;12.784;2023-02-05T01:07:39;98245.47;;;-3.06
73894;BMP280;62699;50.534;12.784;2023-02-05T01:12:40;98237.38;;;-3.17
73894;BMP280;62699;50.534;12.784;2023-02-05T01:17:40;98227.44;;;-3.24
73894;BMP280;62699;50.534;12.784;2023-02-05T01:22:41;98217.03;;;-3.36
73894;BMP280;62699;50.534;12.784;2023-02-05T01:27:41;98213.59;;;-3.40
73894;BMP280;62699;50.534;12.784;2023-02-05T01:32:41;98212.88;;;-3.56
73894;BMP280;62699;50.534;12.784;2023-02-05T01:37:42;98218.00;;;-3.63
73894;BMP280;62699;50.534;12.784;2023-02-05T01:42:42;98211.06;;;-3.71
73894;BMP280;62699;50.534;12.784;2023-02-05T01:47:43;98199.69;;;-3.75
73894;BMP280;62699;50.534;12.784;2023-02-05T01:52:43;98204.47;;;-3.81
73894;BMP280;62699;50.534;12.784;2023-02-05T01:57:45;98186.69;;;-3.87
73894;BMP280;62699;50.534;12.784;2023-02-05T02:02:45;98191.22;;;-3.84
73894;BMP280;62699;50.534;12.784;2023-02-05T02:07:46;98188.75;;;-3.77
73894;BMP280;62699;50.534;12.784;2023-02-05T02:12:46;98172.25;;;-3.74
73894;BMP280;62699;50.534;12.784;2023-02-05T02:17:51;98157.75;;;-3.68
73894;BMP280;62699;50.534;12.784;2023-02-05T02:28:15;98145.19;;;-3.55
73894;BMP280;62699;50.534;12.784;2023-02-05T02:33:49;98128.63;;;-3.56
73894;BMP280;62699;50.534;12.784;2023-02-05T02:39:09;98128.28;;;-3.54
73894;BMP280;62699;50.534;12.784;2023-02-05T02:44:15;98113.97;;;-3.57
73894;BMP280;62699;50.534;12.784;2023-02-05T02:49:38;98112.28;;;-3.65
73894;BMP280;62699;50.534;12.784;2023-02-05T02:54:42;98120.06;;;-3.72
73894;BMP280;62699;50.534;12.784;2023-02-05T02:59:46;98122.81;;;-3.84
73894;BMP280;62699;50.534;12.784;2023-02-05T03:04:56;98115.03;;;-3.97
73894;BMP280;62699;50.534;12.784;2023-02-05T03:15:23;98106.28;;;-4.20
73894;BMP280;62699;50.534;12.784;2023-02-05T03:20:30;98098.59;;;-4.28
73894;BMP280;62699;50.534;12.784;2023-02-05T03:25:31;98094.63;;;-4.38
73894;BMP280;62699;50.534;12.784;2023-02-05T03:30:39;98097.03;;;-4.49
73894;BMP280;62699;50.534;12.784;2023-02-05T03:41:10;98110.16;;;-4.65
73894;BMP280;62699;50.534;12.784;2023-02-05T03:51:46;98115.72;;;-4.70
73894;BMP280;62699;50.534;12.784;2023-02-05T03:56:59;98107.22;;;-4.79
73894;BMP280;62699;50.534;12.784;2023-02-05T04:02:00;98113.97;;;-4.78
73894;BMP280;62699;50.534;12.784;2023-02-05T04:07:03;98117.53;;;-4.86
73894;BMP280;62699;50.534;12.784;2023-02-05T04:12:04;98117.13;;;-4.88
73894;BMP280;62699;50.534;12.784;2023-02-05T04:17:04;98114.31;;;-4.95
73894;BMP280;62699;50.534;12.784;2023-02-05T04:22:04;98107.75;;;-4.89
73894;BMP280;62699;50.534;12.784;2023-02-05T04:27:05;98103.94;;;-4.91
73894;BMP280;62699;50.534;12.784;2023-02-05T04:32:05;98111.88;;;-4.88
73894;BMP280;62699;50.534;12.784;2023-02-05T04:37:06;98110.09;;;-4.84
73894;BMP280;62699;50.534;12.784;2023-02-05T04:42:06;98104.16;;;-4.81
73894;BMP280;62699;50.534;12.784;2023-02-05T04:47:06;98103.25;;;-4.73
73894;BMP280;62699;50.534;12.784;2023-02-05T04:52:18;98107.81;;;-4.70
73894;BMP280;62699;50.534;12.784;2023-02-05T04:57:18;98116.53;;;-4.66
73894;BMP280;62699;50.534;12.784;2023-02-05T05:02:18;98116.72;;;-4.58
73894;BMP280;62699;50.534;12.784;2023-02-05T05:07:19;98126.44;;;-4.59
73894;BMP280;62699;50.534;12.784;2023-02-05T05:12:19;98124.69;;;-4.55
73894;BMP280;62699;50.534;12.784;2023-02-05T05:17:19;98121.72;;;-4.53
73894;BMP280;62699;50.534;12.784;2023-02-05T05:22:20;98135.19;;;-4.55
73894;BMP280;62699;50.534;12.784;2023-02-05T05:27:20;98141.63;;;-4.52
73894;BMP280;62699;50.534;12.784;2023-02-05T05:32:22;98136.38;;;-4.52
73894;BMP280;62699;50.534;12.784;2023-02-05T05:37:22;98134.09;;;-4.54
73894;BMP280;62699;50.534;12.784;2023-02-05T05:42:22;98130.94;;;-4.59
73894;BMP280;62699;50.534;12.784;2023-02-05T05:47:41;98137.56;;;-4.66
73894;BMP280;62699;50.534;12.784;2023-02-05T05:52:42;98132.91;;;-4.72
73894;BMP280;62699;50.534;12.784;2023-02-05T05:57:42;98130.63;;;-4.74
73894;BMP280;62699;50.534;12.784;2023-02-05T06:02:42;98132.03;;;-4.76
73894;BMP280;62699;50.534;12.784;2023-02-05T06:07:43;98145.50;;;-4.78
73894;BMP280;62699;50.534;12.784;2023-02-05T06:12:43;98156.00;;;-4.78
73894;BMP280;62699;50.534;12.784;2023-02-05T06:17:44;98150.09;;;-4.75
73894;BMP280;62699;50.534;12.784;2023-02-05T06:22:44;98153.25;;;-4.69
73894;BMP280;62699;50.534;12.784;2023-02-05T06:27:45;98142.81;;;-4.66
73894;BMP280;62699;50.534;12.784;2023-02-05T06:32:45;98141.03;;;-4.61
73894;BMP280;62699;50.534;12.784;2023-02-05T06:37:45;98134.34;;;-4.59
73894;BMP280;62699;50.534;12.784;2023-02-05T06:42:46;98125.25;;;-4.61
73894;BMP280;62699;50.534;12.784;2023-02-05T06:47:46;98138.41;;;-4.61
73894;BMP280;62699;50.534;12.784;2023-02-05T06:52:47;98143.66;;;-4.61
73894;BMP280;62699;50.534;12.784;2023-02-05T06:57:47;98130.19;;;-4.60
73894;BMP280;62699;50.534;12.784;2023-02-05T07:02:48;98118.84;;;-4.48
73894;BMP280;62699;50.534;12.784;2023-02-05T07:07:48;98126.25;;;-4.35
73894;BMP280;62699;50.534;12.784;2023-02-05T07:13:00;98135.44;;;-4.28
73894;BMP280;62699;50.534;12.784;2023-02-05T07:18:00;98137.91;;;-4.16
73894;BMP280;62699;50.534;12.784;2023-02-05T07:23:01;98132.56;;;-4.04
73894;BMP280;62699;50.534;12.784;2023-02-05T07:28:05;98136.94;;;-3.92
73894;BMP280;62699;50.534;12.784;2023-02-05T07:33:06;98141.53;;;-3.89
73894;BMP280;62699;50.534;12.784;2023-02-05T07:38:06;98140.06;;;-3.87
73894;BMP280;62699;50.534;12.784;2023-02-05T07:43:06;98143.25;;;-3.78
73894;BMP280;62699;50.534;12.784;2023-02-05T07:48:07;98159.66;;;-3.65
73894;BMP280;62699;50.534;12.784;2023-02-05T07:53:07;98148.03;;;-3.64
73894;BMP280;62699;50.534;12.784;2023-02-05T07:58:07;98142.19;;;-3.35
73894;BMP280;62699;50.534;12.784;2023-02-05T08:03:08;98145.47;;;-2.99
73894;BMP280;62699;50.534;12.784;2023-02-05T08:08:09;98132.06;;;-2.91
73894;BMP280;62699;50.534;12.784;2023-02-05T08:13:10;98129.00;;;-2.43
73894;BMP280;62699;50.534;12.784;2023-02-05T08:18:11;98118.53;;;-1.80
73894;BMP280;62699;50.534;12.784;2023-02-05T08:23:11;98116.03;;;-2.29
73894;BMP280;62699;50.534;12.784;2023-02-05T08:28:12;98122.69;;;-2.09
73894;BMP280;62699;50.534;12.784;2023-02-05T08:33:12;98114.22;;;-1.92
73894;BMP280;62699;50.534;12.784;2023-02-05T08:38:12;98116.09;;;-1.92
73894;BMP280;62699;50.534;12.784;2023-02-05T08:43:13;98109.88;;;-1.03
73894;BMP280;62699;50.534;12.784;2023-02-05T08:48:13;98100.97;;;-0.19
73894;BMP280;62699;50.534;12.784;2023-02-05T08:53:14;98099.31;;;-0.41
73894;BMP280;62699;50.534;12.784;2023-02-05T08:58:14;98083.59;;;-0.78
73894;BMP280;62699;50.534;12.784;2023-02-05T09:03:14;98070.03;;;-0.73
73894;BMP280;62699;50.534;12.784;2023-02-05T09:08:14;98069.59;;;-0.82
73894;BMP280;62699;50.534;12.784;2023-02-05T09:13:15;98050.00;;;-0.74
73894;BMP280;62699;50.534;12.784;2023-02-05T09:18:15;98042.91;;;-0.63
73894;BMP280;62699;50.534;12.784;2023-02-05T09:23:17;98041.81;;;-0.48
73894;BMP280;62699;50.534;12.784;2023-02-05T09:28:17;98031.66;;;-0.39
73894;BMP280;62699;50.534;12.784;2023-02-05T09:33:17;98029.16;;;-0.07
73894;BMP280;62699;50.534;12.784;2023-02-05T09:38:18;98020.88;;;0.23
73894;BMP280;62699;50.534;12.784;2023-02-05T09:49:12;98007.94;;;-0.17
73894;BMP280;62699;50.534;12.784;2023-02-05T09:54:18;97995.09;;;-0.08
73894;BMP280;62699;50.534;12.784;2023-02-05T09:59:25;97998.56;;;0.31
73894;BMP280;62699;50.534;12.784;2023-02-05T10:04:26;98001.59;;;0.55
73894;BMP280;62699;50.534;12.784;2023-02-05T10:15:03;98010.28;;;0.16
73894;BMP280;62699;50.534;12.784;2023-02-05T10:20:19;98009.16;;;0.53
73894;BMP280;62699;50.534;12.784;2023-02-05T10:25:52;98008.38;;;0.73
73894;BMP280;62699;50.534;12.784;2023-02-05T10:31:11;97995.88;;;0.74
73894;BMP280;62699;50.534;12.784;2023-02-05T10:36:20;97999.31;;;0.64
73894;BMP280;62699;50.534;12.784;2023-02-05T10:41:35;97996.63;;;0.85
73894;BMP280;62699;50.534;12.784;2023-02-05T10:46:39;97984.16;;;0.79
73894;BMP280;62699;50.534;12.784;2023-02-05T10:51:42;97980.38;;;0.76
73894;BMP280;62699;50.534;12.784;2023-02-05T10:56:43;97984.13;;;0.89
73894;BMP280;62699;50.534;12.784;2023-02-05T11:01:43;97974.66;;;0.88
73894;BMP280;62699;50.534;12.784;2023-02-05T11:06:48;97975.00;;;1.04
73894;BMP280;62699;50.534;12.784;2023-02-05T11:11:50;97967.78;;;1.12
73894;BMP280;62699;50.534;12.784;2023-02-05T11:16:52;97958.53;;;1.45
73894;BMP280;62699;50.534;12.784;2023-02-05T11:21:55;97944.09;;;1.53
73894;BMP280;62699;50.534;12.784;2023-02-05T11:27:24;97944.84;;;1.54
73894;BMP280;62699;50.534;12.784;2023-02-05T11:32:36;97940.28;;;1.61
73894;BMP280;62699;50.534;12.784;2023-02-05T11:37:38;97937.16;;;1.77
73894;BMP280;62699;50.534;12.784;2023-02-05T11:42:39;97940.13;;;1.86
73894;BMP280;62699;50.534;12.784;2023-02-05T11:47:39;97946.41;;;2.10
73894;BMP280;62699;50.534;12.784;2023-02-05T11:52:40;97941.13;;;2.03
73894;BMP280;62699;50.534;12.784;2023-02-05T11:57:40;97939.91;;;2.14
73894;BMP280;62699;50.534;12.784;2023-02-05T12:02:42;97941.06;;;2.13
73894;BMP280;62699;50.534;12.784;2023-02-05T12:08:10;97928.00;;;2.30
73894;BMP280;62699;50.534;12.784;2023-02-05T12:13:23;97931.50;;;2.23
73894;BMP280;62699;50.534;12.784;2023-02-05T12:18:34;97922.22;;;2.42
73894;BMP280;62699;50.534;12.784;2023-02-05T12:23:52;97915.31;;;2.48
73894;BMP280;62699;50.534;12.784;2023-02-05T12:34:41;97907.78;;;2.43
73894;BMP280;62699;50.534;12.784;2023-02-05T12:39:52;97901.84;;;2.28
73894;BMP280;62699;50.534;12.784;2023-02-05T12:50:07;97891.97;;;2.25
73894;BMP280;62699;50.534;12.784;2023-02-05T12:55:15;97892.78;;;2.22
73894;BMP280;62699;50.534;12.784;2023-02-05T13:00:19;97892.81;;;2.18
73894;BMP280;62699;50.534;12.784;2023-02-05T13:05:34;97903.41;;;2.22
73894;BMP280;62699;50.534;12.784;2023-02-05T13:10:46;97904.81;;;2.34
73894;BMP280;62699;50.534;12.784;2023-02-05T13:16:01;97898.13;;;2.15
73894;BMP280;62699;50.534;12.784;2023-02-05T13:21:06;97897.44;;;2.11
73894;BMP280;62699;50.534;12.784;2023-02-05T13:26:31;97887.47;;;2.22
73894;BMP280;62699;50.534;12.784;2023-02-05T13:31:56;97900.00;;;2.21
73894;BMP280;62699;50.534;12.784;2023-02-05T13:37:19;97893.97;;;2.14
73894;BMP280;62699;50.534;12.784;2023-02-05T13:47:52;97892.81;;;2.18
73894;BMP280;62699;50.534;12.784;2023-02-05T13:53:17;97900.47;;;2.09
73894;BMP280;62699;50.534;12.784;2023-02-05T14:03:56;97908.72;;;2.22
73894;BMP280;62699;50.534;12.784;2023-02-05T14:09:04;97904.94;;;2.23
73894;BMP280;62699;50.534;12.784;2023-02-05T14:19:24;97896.44;;;2.35
73894;BMP280;62699;50.534;12.784;2023-02-05T14:24:43;97894.88;;;2.41
73894;BMP280;62699;50.534;12.784;2023-02-05T14:29:46;97900.97;;;2.38
73894;BMP280;62699;50.534;12.784;2023-02-05T14:34:47;97908.53;;;2.40
73894;BMP280;62699;50.534;12.784;2023-02-05T14:39:57;97905.03;;;2.05
73894;BMP280;62699;50.534;12.784;2023-02-05T14:44:59;97911.13;;;2.06
73894;BMP280;62699;50.534;12.784;2023-02-05T14:50:06;97910.06;;;1.96
73894;BMP280;62699;50.534;12.784;2023-02-05T15:00:29;97941.66;;;1.83
73894;BMP280;62699;50.534;12.784;2023-02-05T15:21:19;97964.59;;;1.49
73894;BMP280;62699;50.534;12.784;2023-02-05T15:26:33;97953.75;;;1.19
73894;BMP280;62699;50.534;12.784;2023-02-05T15:31:47;97950.38;;;1.07
73894;BMP280;62699;50.534;12.784;2023-02-05T15:36:54;97949.28;;;0.91
73894;BMP280;62699;50.534;12.784;2023-02-05T15:41:57;97946.28;;;0.74
73894;BMP280;62699;50.534;12.784;2023-02-05T15:47:01;97931.53;;;0.56
73894;BMP280;62699;50.534;12.784;2023-02-05T15:52:03;97937.59;;;0.46
73894;BMP280;62699;50.534;12.784;2023-02-05T15:57:05;97933.81;;;0.32
73894;BMP280;62699;50.534;12.784;2023-02-05T16:02:14;97947.84;;;0.22
73894;BMP280;62699;50.534;12.784;2023-02-05T16:07:26;97946.34;;;0.07
73894;BMP280;62699;50.534;12.784;2023-02-05T16:12:27;97946.69;;;-0.16
73894;BMP280;62699;50.534;12.784;2023-02-05T16:22:37;97951.47;;;-0.50
73894;BMP280;62699;50.534;12.784;2023-02-05T16:27:43;97967.31;;;-0.60
73894;BMP280;62699;50.534;12.784;2023-02-05T16:32:44;97981.97;;;-0.77
73894;BMP280;62699;50.534;12.784;2023-02-05T16:37:45;97992.53;;;-0.81
73894;BMP280;62699;50.534;12.784;2023-02-05T16:42:46;97992.09;;;-0.93
73894;BMP280;62699;50.534;12.784;2023-02-05T16:48:14;98024.53;;;-1.03
73894;BMP280;62699;50.534;12.784;2023-02-05T16:53:24;98017.66;;;-1.12
73894;BMP280;62699;50.534;12.784;2023-02-05T16:58:27;98022.47;;;-1.28
73894;BMP280;62699;50.534;12.784;2023-02-05T17:03:37;98042.31;;;-1.41
73894;BMP280;62699;50.534;12.784;2023-02-05T17:08:38;98055.81;;;-1.53
73894;BMP280;62699;50.534;12.784;2023-02-05T17:13:41;98054.56;;;-1.66
73894;BMP280;62699;50.534;12.784;2023-02-05T17:18:42;98051.06;;;-1.77
73894;BMP280;62699;50.534;12.784;2023-02-05T17:23:52;98050.53;;;-1.90
73894;BMP280;62699;50.534;12.784;2023-02-05T17:29:02;98057.97;;;-1.99
73894;BMP280;62699;50.534;12.784;2023-02-05T17:34:04;98051.84;;;-2.07
73894;BMP280;62699;50.534;12.784;2023-02-05T17:39:05;98040.09;;;-2.13
73894;BMP280;62699;50.534;12.784;2023-02-05T17:44:05;98054.31;;;-2.21
73894;BMP280;62699;50.534;12.784;2023-02-05T17:49:08;98039.44;;;-2.36
73894;BMP280;62699;50.534;12.784;2023-02-05T17:54:11;98058.31;;;-2.34
73894;BMP280;62699;50.534;12.784;2023-02-05T17:59:16;98060.13;;;-2.38
73894;BMP280;62699;50.534;12.784;2023-02-05T18:04:18;98057.38;;;-2.49
73894;BMP280;62699;50.534;12.784;2023-02-05T18:09:18;98063.19;;;-2.63
73894;BMP280;62699;50.534;12.784;2023-02-05T18:14:19;98066.34;;;-2.54
73894;BMP280;62699;50.534;12.784;2023-02-05T18:19:19;98061.16;;;-2.46
73894;BMP280;62699;50.534;12.784;2023-02-05T18:24:19;98053.91;;;-2.53
73894;BMP280;62699;50.534;12.784;2023-02-05T18:29:19;98061.75;;;-2.60
73894;BMP280;62699;50.534;12.784;2023-02-05T18:34:20;98057.50;;;-2.65
73894;BMP280;62699;50.534;12.784;2023-02-05T18:39:21;98076.25;;;-2.70
73894;BMP280;62699;50.534;12.784;2023-02-05T18:44:21;98073.47;;;-2.80
73894;BMP280;62699;50.534;12.784;2023-02-05T18:49:22;98064.31;;;-2.90
73894;BMP280;62699;50.534;12.784;2023-02-05T18:54:22;98067.94;;;-2.98
73894;BMP280;62699;50.534;12.784;2023-02-05T18:59:23;98085.88;;;-3.07
73894;BMP280;62699;50.534;12.784;2023-02-05T19:04:25;98101.50;;;-3.18
73894;BMP280;62699;50.534;12.784;2023-02-05T19:09:27;98106.84;;;-3.34
73894;BMP280;62699;50.534;12.784;2023-02-05T19:14:27;98117.72;;;-3.35
73894;BMP280;62699;50.534;12.784;2023-02-05T19:19:28;98123.19;;;-3.47
73894;BMP280;62699;50.534;12.784;2023-02-05T19:24:30;98140.69;;;-3.55
73894;BMP280;62699;50.534;12.784;2023-02-05T19:29:30;98134.59;;;-3.59
73894;BMP280;62699;50.534;12.784;2023-02-05T19:34:39;98140.84;;;-3.67
73894;BMP280;62699;50.534;12.784;2023-02-05T19:39:42;98133.22;;;-3.72
73894;BMP280;62699;50.534;12.784;2023-02-05T19:44:42;98131.19;;;-3.79
73894;BMP280;62699;50.534;12.784;2023-02-05T19:49:46;98134.88;;;-3.83
73894;BMP280;62699;50.534;12.784;2023-02-05T19:54:46;98147.31;;;-4.00
73894;BMP280;62699;50.534;12.784;2023-02-05T19:59:53;98149.78;;;-4.07
73894;BMP280;62699;50.534;12.784;2023-02-05T20:04:54;98150.75;;;-4.15
73894;BMP280;62699;50.534;12.784;2023-02-05T20:09:54;98148.78;;;-4.18
73894;BMP280;62699;50.534;12.784;2023-02-05T20:14:55;98158.81;;;-4.23
73894;BMP280;62699;50.534;12.784;2023-02-05T20:19:55;98163.84;;;-4.34
73894;BMP280;62699;50.534;12.784;2023-02-05T20:24:56;98170.44;;;-4.40
73894;BMP280;62699;50.534;12.784;2023-02-05T20:29:59;98152.38;;;-4.57
73894;BMP280;62699;50.534;12.784;2023-02-05T20:35:18;98149.69;;;-4.61
73894;BMP280;62699;50.534;12.784;2023-02-05T20:40:19;98153.25;;;-4.69
73894;BMP280;62699;50.534;12.784;2023-02-05T20:45:20;98153.59;;;-4.71
73894;BMP280;62699;50.534;12.784;2023-02-05T20:50:20;98158.63;;;-4.78
73894;BMP280;62699;50.534;12.784;2023-02-05T20:55:20;98151.47;;;-4.81
73894;BMP280;62699;50.534;12.784;2023-02-05T21:00:21;98154.59;;;-4.91
73894;BMP280;62699;50.534;12.784;2023-02-05T21:05:22;98160.50;;;-4.94
73894;BMP280;62699;50.534;12.784;2023-02-05T21:10:22;98168.97;;;-5.01
73894;BMP280;62699;50.534;12.784;2023-02-05T21:15:23;98161.47;;;-5.14
73894;BMP280;62699;50.534;12.784;2023-02-05T21:20:23;98175.69;;;-5.15
73894;BMP280;62699;50.534;12.784;2023-02-05T21:25:23;98174.22;;;-5.28
73894;BMP280;62699;50.534;12.784;2023-02-05T21:30:24;98184.53;;;-5.36
73894;BMP280;62699;50.534;12.784;2023-02-05T21:35:24;98176.25;;;-5.50
73894;BMP280;62699;50.534;12.784;2023-02-05T21:40:24;98198.69;;;-5.52
73894;BMP280;62699;50.534;12.784;2023-02-05T21:45:25;98210.81;;;-5.60
73894;BMP280;62699;50.534;12.784;2023-02-05T21:50:25;98220.03;;;-5.66
73894;BMP280;62699;50.534;12.784;2023-02-05T21:55:25;98231.09;;;-5.73
73894;BMP280;62699;50.534;12.784;2023-02-05T22:00:26;98235.00;;;-5.79
73894;BMP280;62699;50.534;12.784;2023-02-05T22:05:32;98243.97;;;-5.80
73894;BMP280;62699;50.534;12.784;2023-02-05T22:10:33;98256.56;;;-5.85
73894;BMP280;62699;50.534;12.784;2023-02-05T22:15:33;98255.13;;;-5.95
73894;BMP280;62699;50.534;12.784;2023-02-05T22:20:34;98251.56;;;-6.03
73894;BMP280;62699;50.534;12.784;2023-02-05T22:25:48;98268.66;;;-6.05
73894;BMP280;62699;50.534;12.784;2023-02-05T22:30:48;98261.38;;;-6.12
73894;BMP280;62699;50.534;12.784;2023-02-05T22:35:52;98272.34;;;-6.18
73894;BMP280;62699;50.534;12.784;2023-02-05T22:40:52;98277.72;;;-6.27
73894;BMP280;62699;50.534;12.784;2023-02-05T22:45:52;98271.06;;;-6.24
73894;BMP280;62699;50.534;12.784;2023-02-05T22:50:53;98271.06;;;-6.24
73894;BMP280;62699;50.534;12.784;2023-02-05T22:55:53;98281.63;;;-6.21
73894;BMP280;62699;50.534;12.784;2023-02-05T23:00:54;98281.47;;;-6.16
73894;BMP280;62699;50.534;12.784;2023-02-05T23:05:54;98300.34;;;-6.22
73894;BMP280;62699;50.534;12.784;2023-02-05T23:10:54;98303.94;;;-6.27
73894;BMP280;62699;50.534;12.784;2023-02-05T23:15:55;98297.69;;;-6.35
73894;BMP280;62699;50.534;12.784;2023-02-05T23:20:55;98304.09;;;-6.44
73894;BMP280;62699;50.534;12.784;2023-02-05T23:25:55;98302.56;;;-6.45
73894;BMP280;62699;50.534;12.784;2023-02-05T23:30:56;98303.44;;;-6.41
73894;BMP280;62699;50.534;12.784;2023-02-05T23:35:56;98299.78;;;-6.28
73894;BMP280;62699;50.534;12.784;2023-02-05T23:40:57;98284.69;;;-6.19
73894;BMP280;62699;50.534;12.784;2023-02-05T23:45:58;98275.34;;;-6.08
73894;BMP280;62699;50.534;12.784;2023-02-05T23:50:58;98289.78;;;-6.02
73894;BMP280;62699;50.534;12.784;2023-02-05T23:55:59;98283.22;;;-5.95
